KLWV/LWV METAR and TAF weather

Enter ICAO airport designator
Station Type Date Time Source
KLWV METAR 2021/01/27 13:53 UTC NOAA

KLWV 271353Z AUTO 01008KT 10SM OVC023 01/M03 A3022 RMK AO2 SLP238 T00061033 $


Station Type Date Time Source
KLWV Decoded METAR 2021/01/27 13:53 UTC NOAA

LAWRENCEVILLE-VINCENNES INTERNATIONAL , IL, United States (KLWV) 38-46N 87-36W 131M
Jan 27, 2021 - 08:53 AM EST / 2021.01.27 1353 UTC
Wind: from the N (010 degrees) at 9 MPH (8 KT):0
Visibility: 10 mile(s):0
Sky conditions: overcast
Temperature: 33.1 F (0.6 C)
Windchill: 24 F (-4 C):1
Dew Point: 26.1 F (-3.3 C)
Relative Humidity: 75%
Pressure (altimeter): 30.22 in. Hg (1023 hPa)
ob: KLWV 271353Z AUTO 01008KT 10SM OVC023 01/M03 A3022 RMK AO2 SLP238 T00061033
cycle: 14

Station Type Date Time Source
KLWV TAF UTC NOAA

Error!

Example: see airport list